createdAt,value
2022-12-15T00:02:35.490Z,-1.30
2022-12-15T00:05:21.337Z,-1.20
2022-12-15T00:08:06.732Z,-1.20
2022-12-15T00:10:52.391Z,-1.30
2022-12-15T00:13:37.765Z,-1.30
2022-12-15T00:16:23.889Z,-1.20
2022-12-15T00:19:09.162Z,-1.20
2022-12-15T00:21:54.600Z,-1.20
2022-12-15T00:24:39.964Z,-1.20
2022-12-15T00:27:25.523Z,-1.40
2022-12-15T00:30:10.699Z,-1.30
2022-12-15T00:32:56.042Z,-1.50
2022-12-15T00:35:41.530Z,-1.70
2022-12-15T00:38:33.853Z,-1.80
2022-12-15T00:41:01.826Z,-1.90
2022-12-15T00:43:30.208Z,-2.00
2022-12-15T00:46:16.588Z,-2.00
2022-12-15T00:48:43.979Z,-1.90
2022-12-15T00:51:10.953Z,-1.90
2022-12-15T00:53:56.482Z,-1.90
2022-12-15T00:56:42.095Z,-1.70
2022-12-15T00:59:28.006Z,-1.70
2022-12-15T01:02:13.664Z,-1.70
2022-12-15T01:04:59.063Z,-1.60
2022-12-15T01:07:44.890Z,-1.70
2022-12-15T01:10:35.308Z,-1.80
2022-12-15T01:13:20.921Z,-1.90
2022-12-15T01:16:06.417Z,-1.80
2022-12-15T01:18:53.261Z,-2.00
2022-12-15T01:21:24.367Z,-1.90
2022-12-15T01:23:52.234Z,-1.90
2022-12-15T01:26:18.927Z,-1.90
2022-12-15T01:28:45.655Z,-1.80
2022-12-15T01:31:13.045Z,-1.90
2022-12-15T01:33:42.486Z,-1.80
2022-12-15T01:36:10.455Z,-1.80
2022-12-15T01:38:37.359Z,-1.70
2022-12-15T01:41:09.337Z,-1.90
2022-12-15T01:43:38.602Z,-2.00
2022-12-15T01:46:11.382Z,-2.00
2022-12-15T01:48:42.832Z,-1.90
2022-12-15T01:51:31.401Z,-1.80
2022-12-15T01:54:09.617Z,-1.80
2022-12-15T01:56:40.220Z,-1.80
2022-12-15T01:59:10.900Z,-1.80
2022-12-15T02:01:37.659Z,-1.80
2022-12-15T02:04:04.887Z,-1.80
2022-12-15T02:06:32.611Z,-1.90
2022-12-15T02:09:01.203Z,-2.00
2022-12-15T02:11:39.825Z,-1.90
2022-12-15T02:14:08.851Z,-1.80
2022-12-15T02:17:01.859Z,-1.70
2022-12-15T02:19:37.267Z,-1.70
2022-12-15T02:22:31.228Z,-1.70
2022-12-15T02:25:10.713Z,-1.60
2022-12-15T02:27:49.273Z,-1.60
2022-12-15T02:30:20.638Z,-1.60
2022-12-15T02:33:11.767Z,-1.60
2022-12-15T02:35:52.507Z,-1.50
2022-12-15T02:38:34.007Z,-1.50
2022-12-15T02:41:03.574Z,-1.40
2022-12-15T02:43:33.523Z,-1.40
2022-12-15T02:46:18.840Z,-1.40
2022-12-15T02:49:24.947Z,-1.40
2022-12-15T02:51:51.720Z,-1.30
2022-12-15T02:54:50.041Z,-1.40
2022-12-15T02:57:37.652Z,-1.50
2022-12-15T03:00:11.912Z,-1.50
2022-12-15T03:02:44.319Z,-1.40
2022-12-15T03:05:13.187Z,-1.50
2022-12-15T03:07:42.826Z,-1.40
2022-12-15T03:10:12.223Z,-1.40
2022-12-15T03:12:39.487Z,-1.50
2022-12-15T03:15:07.188Z,-1.50
2022-12-15T03:17:34.310Z,-1.50
2022-12-15T03:20:01.094Z,-1.50
2022-12-15T03:22:27.857Z,-1.40
2022-12-15T03:24:54.535Z,-1.40
2022-12-15T03:27:21.490Z,-1.40
2022-12-15T03:29:48.200Z,-1.30
2022-12-15T03:32:15.099Z,-1.30
2022-12-15T03:34:41.911Z,-1.30
2022-12-15T03:37:09.182Z,-1.30
2022-12-15T03:39:35.890Z,-1.40
2022-12-15T03:42:02.657Z,-1.50
2022-12-15T03:44:29.415Z,-1.60
2022-12-15T03:47:01.361Z,-1.60
2022-12-15T03:49:29.931Z,-1.60
2022-12-15T03:51:56.561Z,-1.40
2022-12-15T03:54:23.211Z,-1.40
2022-12-15T03:56:50.099Z,-1.40
2022-12-15T03:59:16.770Z,-1.40
2022-12-15T04:01:47.983Z,-1.40
2022-12-15T04:04:15.303Z,-1.30
2022-12-15T04:06:41.995Z,-1.20
2022-12-15T04:09:08.663Z,-1.40
2022-12-15T04:11:35.499Z,-1.30
2022-12-15T04:14:02.563Z,-1.40
2022-12-15T04:16:29.732Z,-1.40
2022-12-15T04:19:15.067Z,-1.40
2022-12-15T04:21:41.777Z,-1.40
2022-12-15T04:24:27.139Z,-1.30
2022-12-15T04:27:12.521Z,-1.30
2022-12-15T04:29:57.971Z,-1.30
2022-12-15T04:32:43.331Z,-1.30
2022-12-15T04:35:30.500Z,-1.30
2022-12-15T04:38:16.011Z,-1.30
2022-12-15T04:41:01.406Z,-1.30
2022-12-15T04:43:47.075Z,-1.30
2022-12-15T04:46:32.561Z,-1.40
2022-12-15T04:49:17.848Z,-1.30
2022-12-15T04:52:03.277Z,-1.40
2022-12-15T04:54:49.242Z,-1.40
2022-12-15T04:57:34.636Z,-1.40
2022-12-15T05:00:19.983Z,-1.40
2022-12-15T05:03:05.382Z,-1.40
2022-12-15T05:05:50.874Z,-1.40
2022-12-15T05:08:36.382Z,-1.40
2022-12-15T05:11:21.849Z,-1.40
2022-12-15T05:14:07.103Z,-1.30
2022-12-15T05:16:52.518Z,-1.30
2022-12-15T05:19:37.959Z,-1.30
2022-12-15T05:22:23.383Z,-1.30
2022-12-15T05:25:08.936Z,-1.30
2022-12-15T05:27:54.351Z,-1.30
2022-12-15T05:30:39.779Z,-1.40
2022-12-15T05:33:06.498Z,-1.40
2022-12-15T05:35:33.170Z,-1.40
2022-12-15T05:37:59.785Z,-1.40
2022-12-15T05:40:26.599Z,-1.40
2022-12-15T05:42:53.297Z,-1.50
2022-12-15T05:45:21.159Z,-1.50
2022-12-15T05:47:52.083Z,-1.50
2022-12-15T05:50:19.106Z,-1.50
2022-12-15T05:52:49.278Z,-1.60
2022-12-15T05:55:17.457Z,-1.50
2022-12-15T05:57:44.243Z,-1.50
2022-12-15T06:00:11.405Z,-1.50
2022-12-15T06:02:38.172Z,-1.40
2022-12-15T06:05:05.373Z,-1.40
2022-12-15T06:07:32.081Z,-1.50
2022-12-15T06:09:58.738Z,-1.40
2022-12-15T06:12:25.409Z,-1.40
2022-12-15T06:14:52.154Z,-1.40
2022-12-15T06:17:18.824Z,-1.50
2022-12-15T06:19:45.462Z,-1.50
2022-12-15T06:22:12.626Z,-1.50
2022-12-15T06:24:39.296Z,-1.50
2022-12-15T06:27:05.992Z,-1.50
2022-12-15T06:29:32.608Z,-1.60
2022-12-15T06:31:59.175Z,-1.70
2022-12-15T06:34:27.073Z,-1.70
2022-12-15T06:36:53.724Z,-1.60
2022-12-15T06:39:20.570Z,-1.60
2022-12-15T06:41:47.585Z,-1.60
2022-12-15T06:44:15.715Z,-1.60
2022-12-15T06:46:42.911Z,-1.50
2022-12-15T06:49:09.814Z,-1.50
2022-12-15T06:51:36.632Z,-1.50
2022-12-15T06:54:03.429Z,-1.40
2022-12-15T06:56:34.453Z,-1.40
2022-12-15T06:59:06.103Z,-1.30
2022-12-15T07:01:33.816Z,-1.40
2022-12-15T07:04:02.558Z,-1.30
2022-12-15T07:06:36.057Z,-1.30
2022-12-15T07:09:02.980Z,-1.40
2022-12-15T07:11:29.805Z,-1.30
2022-12-15T07:13:56.528Z,-1.30
2022-12-15T07:16:23.885Z,-1.20
2022-12-15T07:18:50.960Z,-1.30
2022-12-15T07:21:18.124Z,-1.20
2022-12-15T07:23:54.717Z,-1.20
2022-12-15T07:26:23.826Z,-1.30
2022-12-15T07:28:50.745Z,-1.20
2022-12-15T07:31:17.946Z,-1.10
2022-12-15T07:33:44.915Z,-1.10
2022-12-15T07:36:11.811Z,-1.10
2022-12-15T07:38:38.613Z,-1.00
2022-12-15T07:41:07.831Z,-1.10
2022-12-15T07:43:35.802Z,-1.00
2022-12-15T07:46:04.260Z,-1.00
2022-12-15T07:48:31.104Z,-1.00
2022-12-15T07:51:07.497Z,-0.90
2022-12-15T07:53:37.285Z,-0.80
2022-12-15T07:56:08.085Z,-0.70
2022-12-15T07:58:35.740Z,-0.70
2022-12-15T08:01:05.286Z,-0.60
2022-12-15T08:03:32.918Z,-0.60
2022-12-15T08:06:07.607Z,-0.50
2022-12-15T08:08:35.620Z,-0.40
2022-12-15T08:11:07.457Z,-0.40
2022-12-15T08:16:22.086Z,-0.20
2022-12-15T08:18:49.028Z,-0.20
2022-12-15T08:21:15.837Z,-0.40
2022-12-15T08:23:42.591Z,-0.30
2022-12-15T08:26:15.054Z,-0.30
2022-12-15T08:28:42.708Z,-0.30
2022-12-15T08:31:19.200Z,-0.20
2022-12-15T08:33:46.868Z,-0.20
2022-12-15T08:36:15.460Z,-0.20
2022-12-15T08:38:43.310Z,-0.10
2022-12-15T08:41:11.657Z,-0.10
2022-12-15T08:43:44.003Z,0.00
2022-12-15T08:46:15.782Z,0.00
2022-12-15T08:48:42.861Z,0.20
2022-12-15T08:51:10.187Z,0.20
2022-12-15T08:53:36.975Z,0.20
2022-12-15T08:56:09.211Z,0.30
2022-12-15T08:58:36.236Z,0.40
2022-12-15T09:01:05.317Z,0.50
2022-12-15T09:03:33.788Z,0.50
2022-12-15T09:06:05.851Z,0.50
2022-12-15T09:08:33.369Z,0.50
2022-12-15T09:11:01.613Z,0.50
2022-12-15T09:13:29.572Z,0.50
2022-12-15T09:16:09.317Z,0.60
2022-12-15T09:18:36.890Z,0.70
2022-12-15T09:21:05.373Z,0.70
2022-12-15T09:23:32.790Z,0.70
2022-12-15T09:26:05.713Z,0.60
2022-12-15T09:28:32.700Z,0.60
2022-12-15T09:31:03.670Z,0.60
2022-12-15T09:33:31.190Z,0.70
2022-12-15T09:35:58.243Z,0.80
2022-12-15T09:38:25.001Z,0.90
2022-12-15T09:40:51.774Z,0.80
2022-12-15T09:43:46.092Z,0.70
2022-12-15T09:46:42.186Z,0.80
2022-12-15T09:49:23.055Z,0.80
2022-12-15T09:52:07.176Z,0.70
2022-12-15T09:54:37.747Z,0.60
2022-12-15T09:57:31.393Z,0.70
2022-12-15T10:00:16.075Z,0.80
2022-12-15T10:03:18.659Z,0.80
2022-12-15T10:08:44.298Z,0.80
2022-12-15T10:11:24.312Z,0.90
2022-12-15T10:14:07.270Z,0.90
2022-12-15T10:17:09.309Z,0.80
2022-12-15T10:20:08.423Z,0.80
2022-12-15T10:22:37.248Z,1.10
2022-12-15T10:25:30.329Z,1.20
2022-12-15T10:28:15.645Z,1.40
2022-12-15T10:31:34.704Z,1.50
2022-12-15T10:34:11.368Z,1.80
2022-12-15T10:36:38.360Z,1.70
2022-12-15T10:39:05.048Z,2.10
2022-12-15T10:41:32.947Z,2.10
2022-12-15T10:43:59.605Z,2.10
2022-12-15T10:46:28.884Z,2.20
2022-12-15T10:48:59.288Z,2.20
2022-12-15T10:51:37.164Z,2.30
2022-12-15T10:54:22.211Z,2.30
2022-12-15T10:56:56.689Z,2.30
2022-12-15T10:59:30.727Z,2.30
2022-12-15T11:02:24.143Z,2.20
2022-12-15T11:05:17.974Z,2.00
2022-12-15T11:07:52.409Z,2.00
2022-12-15T11:10:53.297Z,1.90
2022-12-15T11:13:22.747Z,1.90
2022-12-15T11:15:54.953Z,1.90
2022-12-15T11:18:40.421Z,1.90
2022-12-15T11:21:25.889Z,1.90
2022-12-15T11:24:05.880Z,1.80
2022-12-15T11:26:57.855Z,1.80
2022-12-15T11:29:42.926Z,1.60
2022-12-15T11:32:12.885Z,1.60
2022-12-15T11:34:44.082Z,1.70
2022-12-15T11:37:44.883Z,1.70
2022-12-15T11:40:39.527Z,1.60
2022-12-15T11:43:27.133Z,1.40
2022-12-15T11:46:05.652Z,1.20
2022-12-15T11:48:35.029Z,1.20
2022-12-15T11:51:17.608Z,0.90
2022-12-15T11:53:59.406Z,0.70
2022-12-15T11:56:30.401Z,0.70
2022-12-15T11:59:26.243Z,0.80
2022-12-15T12:02:23.402Z,0.80
2022-12-15T12:05:08.991Z,0.90
2022-12-15T12:07:43.252Z,0.90
2022-12-15T12:10:09.822Z,0.70
2022-12-15T12:13:07.365Z,0.80
2022-12-15T12:15:43.166Z,0.70
2022-12-15T12:18:22.942Z,1.00
2022-12-15T12:20:54.002Z,1.10
2022-12-15T12:23:27.636Z,1.00
2022-12-15T12:26:02.801Z,1.10
2022-12-15T12:28:43.190Z,1.10
2022-12-15T12:31:23.619Z,0.90
2022-12-15T12:33:55.147Z,0.90
2022-12-15T12:36:21.927Z,1.00
2022-12-15T12:38:55.971Z,1.20
2022-12-15T12:41:31.833Z,1.40
2022-12-15T12:44:03.336Z,1.30
2022-12-15T12:46:36.087Z,1.50
2022-12-15T12:49:09.308Z,1.70
2022-12-15T12:51:49.132Z,1.80
2022-12-15T12:54:34.683Z,1.80
2022-12-15T12:57:11.416Z,1.80
2022-12-15T12:59:41.839Z,1.90
2022-12-15T13:02:31.367Z,1.70
2022-12-15T13:04:58.697Z,1.60
2022-12-15T13:07:37.810Z,1.80
2022-12-15T13:10:18.942Z,1.90
2022-12-15T13:12:54.023Z,1.70
2022-12-15T13:15:27.338Z,2.00
2022-12-15T13:18:00.441Z,2.00
2022-12-15T13:20:29.712Z,1.70
2022-12-15T13:23:16.922Z,1.80
2022-12-15T13:25:51.815Z,1.70
2022-12-15T13:28:27.239Z,1.50
2022-12-15T13:31:19.236Z,1.50
2022-12-15T13:33:56.340Z,1.60
2022-12-15T13:36:38.258Z,1.70
2022-12-15T13:39:17.357Z,1.60
2022-12-15T13:44:54.844Z,1.50
2022-12-15T13:47:29.421Z,1.40
2022-12-15T13:50:12.320Z,1.20
2022-12-15T13:55:38.666Z,0.90
2022-12-15T13:58:18.652Z,0.60
2022-12-15T14:00:55.437Z,0.60
2022-12-15T14:03:23.168Z,0.60
2022-12-15T14:05:58.584Z,0.50
2022-12-15T14:08:28.779Z,0.60
2022-12-15T14:11:11.446Z,0.60
2022-12-15T14:16:35.521Z,0.60
2022-12-15T14:19:17.295Z,0.60
2022-12-15T14:21:57.272Z,0.50
2022-12-15T14:24:39.632Z,0.50
2022-12-15T14:27:07.199Z,0.30
2022-12-15T14:29:33.969Z,0.40
2022-12-15T14:32:00.947Z,0.40
2022-12-15T14:34:33.181Z,0.30
2022-12-15T14:37:03.381Z,0.10
2022-12-15T14:39:46.892Z,0.20
2022-12-15T14:42:26.411Z,0.00
2022-12-15T14:44:57.748Z,0.10
2022-12-15T14:47:28.325Z,0.10
2022-12-15T14:49:58.319Z,0.20
2022-12-15T14:52:36.987Z,0.10
2022-12-15T14:55:33.944Z,0.10
2022-12-15T14:58:01.106Z,0.20
2022-12-15T15:00:32.398Z,0.10
2022-12-15T15:03:20.003Z,0.10
2022-12-15T15:05:49.926Z,-0.20
2022-12-15T15:08:43.117Z,-0.20
2022-12-15T15:11:37.950Z,-0.40
2022-12-15T15:14:10.658Z,-0.40
2022-12-15T15:16:37.656Z,-0.30
2022-12-15T15:19:05.485Z,-0.20
2022-12-15T15:21:37.006Z,-0.20
2022-12-15T15:24:09.549Z,-0.20
2022-12-15T15:26:36.875Z,-0.10
2022-12-15T15:29:04.161Z,-0.30
2022-12-15T15:31:40.927Z,-0.30
2022-12-15T15:34:09.521Z,-0.20
2022-12-15T15:36:38.311Z,-0.40
2022-12-15T15:39:20.007Z,-0.40
2022-12-15T15:41:46.719Z,-0.30
2022-12-15T15:44:15.509Z,-0.40
2022-12-15T15:46:51.198Z,-0.30
2022-12-15T15:49:23.361Z,-0.30
2022-12-15T15:51:50.273Z,-0.30
2022-12-15T15:54:22.135Z,-0.30
2022-12-15T15:56:48.874Z,-0.30
2022-12-15T15:59:17.993Z,-0.40
2022-12-15T16:01:46.923Z,-0.40
2022-12-15T16:04:13.786Z,-0.30
2022-12-15T16:06:46.699Z,-0.40
2022-12-15T16:09:15.571Z,-0.40
2022-12-15T16:11:42.642Z,-0.40
2022-12-15T16:14:14.230Z,-0.40
2022-12-15T16:16:41.888Z,-0.50
2022-12-15T16:19:09.250Z,-0.50
2022-12-15T16:21:36.508Z,-0.50
2022-12-15T16:24:15.684Z,-0.50
2022-12-15T16:26:48.251Z,-0.50
2022-12-15T16:29:16.616Z,-0.50
2022-12-15T16:31:46.640Z,-0.50
2022-12-15T16:34:16.514Z,-0.50
2022-12-15T16:36:44.679Z,-0.50
2022-12-15T16:39:27.029Z,-0.50
2022-12-15T16:41:55.001Z,-0.50
2022-12-15T16:44:22.381Z,-0.40
2022-12-15T16:46:49.085Z,-0.60
2022-12-15T16:49:15.844Z,-0.50
2022-12-15T16:51:45.575Z,-0.60
2022-12-15T16:54:21.952Z,-0.60
2022-12-15T16:56:49.058Z,-0.50
2022-12-15T16:59:36.576Z,-0.50
2022-12-15T17:02:35.658Z,-0.50
2022-12-15T17:05:02.439Z,-0.50
2022-12-15T17:07:29.394Z,-0.60
2022-12-15T17:09:56.594Z,-0.60
2022-12-15T17:12:23.285Z,-0.60
2022-12-15T17:14:49.974Z,-0.70
2022-12-15T17:17:18.585Z,-0.70
2022-12-15T17:20:11.785Z,-0.80
2022-12-15T17:22:33.288Z,-0.70
2022-12-15T17:25:00.171Z,-0.70
2022-12-15T17:27:28.711Z,-0.80
2022-12-15T17:29:57.518Z,-0.80
2022-12-15T17:32:24.231Z,-0.80
2022-12-15T17:34:50.987Z,-0.80
2022-12-15T17:37:18.023Z,-0.80
2022-12-15T17:39:50.584Z,-0.90
2022-12-15T17:42:22.158Z,-0.90
2022-12-15T17:44:49.222Z,-0.90
2022-12-15T17:47:18.787Z,-0.90
2022-12-15T17:49:47.209Z,-0.90
2022-12-15T17:52:29.131Z,-0.90
2022-12-15T17:54:56.489Z,-0.90
2022-12-15T17:57:23.214Z,-0.80
2022-12-15T17:59:49.944Z,-0.70
2022-12-15T18:02:16.792Z,-0.90
2022-12-15T18:04:44.541Z,-0.80
2022-12-15T18:07:22.678Z,-0.80
2022-12-15T18:09:51.080Z,-0.80
2022-12-15T18:12:24.674Z,-0.90
2022-12-15T18:14:52.173Z,-1.00
2022-12-15T18:17:19.035Z,-1.10
2022-12-15T18:19:45.675Z,-1.10
2022-12-15T18:22:24.375Z,-0.90
2022-12-15T18:24:53.134Z,-1.00
2022-12-15T18:27:25.855Z,-1.10
2022-12-15T18:29:53.226Z,-1.10
2022-12-15T18:32:22.430Z,-1.20
2022-12-15T18:34:49.334Z,-1.20
2022-12-15T18:37:20.892Z,-1.10
2022-12-15T18:39:48.150Z,-1.00
2022-12-15T18:42:17.648Z,-1.10
2022-12-15T18:44:50.179Z,-1.00
2022-12-15T18:47:19.101Z,-1.00
2022-12-15T18:49:45.897Z,-1.00
2022-12-15T18:52:16.514Z,-1.00
2022-12-15T18:54:43.467Z,-1.00
2022-12-15T18:57:30.364Z,-1.00
2022-12-15T18:59:58.985Z,-1.10
2022-12-15T19:02:25.883Z,-1.00
2022-12-15T19:04:52.690Z,-1.00
2022-12-15T19:07:19.428Z,-1.00
2022-12-15T19:09:46.140Z,-1.00
2022-12-15T19:12:19.578Z,-1.00
2022-12-15T19:14:48.871Z,-1.00
2022-12-15T19:17:39.386Z,-1.00
2022-12-15T19:20:33.985Z,-0.90
2022-12-15T19:23:00.714Z,-1.00
2022-12-15T19:25:29.404Z,-0.90
2022-12-15T19:28:00.294Z,-0.90
2022-12-15T19:30:41.763Z,-0.90
2022-12-15T19:33:10.094Z,-0.90
2022-12-15T19:35:38.346Z,-0.80
2022-12-15T19:38:06.590Z,-0.80
2022-12-15T19:40:35.149Z,-0.80
2022-12-15T19:43:04.215Z,-0.80
2022-12-15T19:45:32.636Z,-0.80
2022-12-15T19:47:59.795Z,-0.90
2022-12-15T19:50:35.926Z,-1.10
2022-12-15T19:53:24.521Z,-1.20
2022-12-15T19:55:53.975Z,-1.20
2022-12-15T19:58:27.551Z,-1.20
2022-12-15T20:00:57.695Z,-1.20
2022-12-15T20:03:25.533Z,-1.40
2022-12-15T20:05:54.576Z,-1.30
2022-12-15T20:08:24.273Z,-1.40
2022-12-15T20:10:52.390Z,-1.30
2022-12-15T20:13:19.704Z,-1.30
2022-12-15T20:15:46.527Z,-1.50
2022-12-15T20:18:13.578Z,-1.40
2022-12-15T20:20:43.415Z,-1.50
2022-12-15T20:23:29.451Z,-1.50
2022-12-15T20:25:57.135Z,-1.60
2022-12-15T20:28:26.984Z,-1.50
2022-12-15T20:30:54.616Z,-1.70
2022-12-15T20:33:22.052Z,-1.50
2022-12-15T20:35:49.723Z,-1.40
2022-12-15T20:38:36.661Z,-1.30
2022-12-15T20:41:03.979Z,-1.20
2022-12-15T20:43:32.184Z,-1.10
2022-12-15T20:46:17.787Z,-1.40
2022-12-15T20:48:45.004Z,-1.20
2022-12-15T20:51:24.148Z,-1.30
2022-12-15T20:53:52.896Z,-1.40
2022-12-15T20:56:23.652Z,-1.30
2022-12-15T20:58:51.375Z,-1.40
2022-12-15T21:01:35.453Z,-1.60
2022-12-15T21:04:18.263Z,-1.70
2022-12-15T21:06:47.614Z,-1.80
2022-12-15T21:09:16.983Z,-1.80
2022-12-15T21:11:45.856Z,-1.80
2022-12-15T21:14:22.470Z,-1.80
2022-12-15T21:16:49.640Z,-1.90
2022-12-15T21:20:06.285Z,-1.90
2022-12-15T21:22:04.131Z,-1.80
2022-12-15T21:24:31.628Z,-1.70
2022-12-15T21:26:58.393Z,-1.80
2022-12-15T21:29:27.999Z,-1.70
2022-12-15T21:31:54.710Z,-1.80
2022-12-15T21:34:22.542Z,-1.70
2022-12-15T21:36:52.587Z,-1.80
2022-12-15T21:39:29.732Z,-1.70
2022-12-15T21:42:00.110Z,-1.60
2022-12-15T21:44:27.171Z,-1.70
2022-12-15T21:46:54.664Z,-1.70
2022-12-15T21:49:21.530Z,-1.60
2022-12-15T21:51:55.119Z,-1.50
2022-12-15T21:54:32.167Z,-1.50
2022-12-15T21:57:00.230Z,-1.60
2022-12-15T21:59:30.243Z,-1.60
2022-12-15T22:01:57.453Z,-1.60
2022-12-15T22:04:28.585Z,-1.60
2022-12-15T22:06:55.223Z,-1.40
2022-12-15T22:09:21.900Z,-1.60
2022-12-15T22:11:52.905Z,-1.60
2022-12-15T22:14:29.253Z,-1.70
2022-12-15T22:16:57.264Z,-1.80
2022-12-15T22:19:24.773Z,-1.60
2022-12-15T22:21:52.081Z,-1.70
2022-12-15T22:24:19.380Z,-1.70
2022-12-15T22:26:47.370Z,-1.70
2022-12-15T22:29:20.468Z,-1.60
2022-12-15T22:31:48.359Z,-1.60
2022-12-15T22:34:18.141Z,-1.70
2022-12-15T22:36:45.527Z,-1.60
2022-12-15T22:39:12.433Z,-1.60
2022-12-15T22:52:18.934Z,-2.00
2022-12-15T22:54:46.336Z,-2.30
2022-12-15T22:57:39.238Z,-2.20
2022-12-15T23:00:09.624Z,-2.10
2022-12-15T23:02:40.551Z,-2.10
2022-12-15T23:05:07.996Z,-2.20
2022-12-15T23:07:35.494Z,-2.20
2022-12-15T23:10:21.168Z,-2.20
2022-12-15T23:12:47.858Z,-2.10
2022-12-15T23:15:33.107Z,-2.20
2022-12-15T23:17:59.804Z,-2.30
2022-12-15T23:20:26.807Z,-2.20
2022-12-15T23:22:53.551Z,-2.20
2022-12-15T23:25:21.731Z,-2.30
2022-12-15T23:27:48.467Z,-2.30
2022-12-15T23:30:15.187Z,-2.30
2022-12-15T23:32:41.822Z,-2.30
2022-12-15T23:35:08.920Z,-2.30
2022-12-15T23:37:35.718Z,-2.30
2022-12-15T23:40:02.352Z,-2.20
2022-12-15T23:42:29.080Z,-2.30
2022-12-15T23:44:55.785Z,-2.10
2022-12-15T23:47:22.530Z,-2.30
2022-12-15T23:49:49.670Z,-2.30
2022-12-15T23:52:18.260Z,-2.20
2022-12-15T23:54:45.029Z,-2.30
2022-12-15T23:57:11.785Z,-2.30
2022-12-15T23:59:38.455Z,-2.30
